Time;durP1;ratioP1;P1;durP2;ratioP2;P2;SDS_P1;SDS_P2;PMS_P1;PMS_P2;Temp;Humidity;BMP_temperature;BMP_pressure;BME280_temperature;BME280_humidity;BME280_pressure;Samples;Min_cycle;Max_cycle;Signal;HPM_P1;HPM_P2
2022/08/21 00:00:55;;;;;;;6.90;4.20;;;27.30;65.70;;;;;;221440;1265;24408;-48
2022/08/21 00:05:57;;;;;;;5.20;4.30;;;27.30;65.70;;;;;;221519;1262;25345;-48
2022/08/21 00:11:00;;;;;;;4.90;4.40;;;27.20;66.10;;;;;;221515;1262;24250;-50
2022/08/21 00:16:03;;;;;;;5.90;4.40;;;27.20;65.50;;;;;;221535;1264;24245;-49
2022/08/21 00:21:05;;;;;;;8.40;5.10;;;27.20;65.50;;;;;;221438;1262;22553;-50
2022/08/21 00:26:10;;;;;;;4.90;4.20;;;27.10;66.10;;;;;;221593;1261;22620;-53
2022/08/21 00:31:12;;;;;;;6.00;5.00;;;27.10;65.50;;;;;;221305;1261;24223;-48
2022/08/21 00:36:15;;;;;;;6.50;4.80;;;27.10;65.50;;;;;;221482;1262;25250;-49
2022/08/21 00:41:17;;;;;;;5.70;5.00;;;27.10;65.50;;;;;;221710;1262;22535;-50
2022/08/21 00:46:41;;;;;;;6.60;4.70;;;27.00;65.40;;;;;;221397;1265;22527;-50
2022/08/21 00:51:55;;;;;;;6.50;4.80;;;27.00;66.00;;;;;;221598;1264;24201;-50
2022/08/21 00:57:01;;;;;;;5.20;4.60;;;27.00;65.30;;;;;;221371;1265;24283;-49
2022/08/21 01:02:07;;;;;;;5.80;4.10;;;27.00;65.20;;;;;;221605;1265;22536;-50
2022/08/21 01:07:10;;;;;;;6.20;4.30;;;27.00;65.10;;;;;;221573;1265;22967;-47
2022/08/21 01:12:13;;;;;;;8.30;5.30;;;27.00;65.10;;;;;;221311;1262;24339;-47
2022/08/21 01:17:18;;;;;;;7.50;4.40;;;27.00;65.10;;;;;;221573;1261;24345;-50
2022/08/21 01:22:20;;;;;;;7.00;4.30;;;27.00;65.00;;;;;;221510;1262;23953;-48
2022/08/21 01:27:22;;;;;;;6.90;4.00;;;27.00;65.30;;;;;;221176;1265;24087;-51
2022/08/21 01:32:25;;;;;;;5.30;4.20;;;26.90;65.20;;;;;;221298;1265;24274;-47
2022/08/21 01:37:27;;;;;;;4.60;3.40;;;26.90;64.90;;;;;;221715;1261;25238;-48
2022/08/21 01:42:30;;;;;;;5.20;3.50;;;26.90;65.50;;;;;;221174;1262;25236;-49
2022/08/21 01:47:32;;;;;;;3.80;3.40;;;26.90;64.90;;;;;;221777;1261;24404;-47
2022/08/21 01:52:34;;;;;;;7.30;3.50;;;26.80;64.80;;;;;;221521;1261;22560;-51
2022/08/21 01:57:37;;;;;;;3.90;3.10;;;26.80;64.90;;;;;;221549;1262;22759;-49
2022/08/21 02:02:41;;;;;;;7.00;3.30;;;26.80;65.00;;;;;;221378;1262;22547;-47
2022/08/21 02:07:48;;;;;;;6.70;3.10;;;26.80;64.60;;;;;;221374;1262;22544;-48
2022/08/21 02:12:50;;;;;;;5.20;3.00;;;26.80;64.50;;;;;;221268;1262;25203;-48
2022/08/21 02:17:57;;;;;;;4.20;3.20;;;26.90;64.40;;;;;;221545;1264;25110;-47
2022/08/21 02:23:00;;;;;;;4.90;3.00;;;26.80;64.30;;;;;;221213;1265;22608;-49
2022/08/21 02:28:08;;;;;;;5.20;2.90;;;26.80;64.30;;;;;;221453;1265;24239;-51
2022/08/21 02:33:12;;;;;;;3.70;2.70;;;26.80;64.20;;;;;;221187;1265;23912;-50
2022/08/21 02:38:19;;;;;;;4.10;2.30;;;26.70;64.50;;;;;;221166;1265;25254;-49
2022/08/21 02:43:24;;;;;;;2.50;2.00;;;26.70;64.10;;;;;;221067;1267;22551;-49
2022/08/21 02:48:29;;;;;;;2.60;2.30;;;26.70;64.10;;;;;;221431;1262;22669;-48
2022/08/21 02:53:34;;;;;;;2.90;2.00;;;26.60;64.00;;;;;;221378;1261;25231;-49
2022/08/21 02:58:40;;;;;;;3.10;1.80;;;26.60;64.00;;;;;;221666;1261;22550;-49
2022/08/21 03:03:44;;;;;;;2.70;1.80;;;26.60;63.80;;;;;;221101;1261;25587;-48
2022/08/21 03:08:46;;;;;;;3.20;1.60;;;26.50;64.10;;;;;;221579;1261;25410;-51
2022/08/21 03:13:49;;;;;;;2.10;1.70;;;26.50;64.20;;;;;;221356;1265;22535;-49
2022/08/21 03:18:52;;;;;;;2.60;1.50;;;26.50;63.80;;;;;;221534;1265;22553;-48
2022/08/21 03:23:55;;;;;;;2.80;1.60;;;26.50;63.70;;;;;;221510;1262;22802;-49
2022/08/21 03:28:57;;;;;;;1.90;1.30;;;26.40;63.50;;;;;;221368;1261;24196;-47
2022/08/21 03:33:59;;;;;;;2.50;1.40;;;26.40;63.60;;;;;;221378;1262;22558;-48
2022/08/21 03:39:03;;;;;;;2.80;1.40;;;26.40;63.60;;;;;;221632;1262;22529;-50
2022/08/21 03:44:06;;;;;;;2.90;1.50;;;26.40;64.30;;;;;;221395;1265;22585;-47
2022/08/21 03:49:08;;;;;;;1.70;1.30;;;26.30;63.70;;;;;;221267;1261;25318;-52
2022/08/21 03:54:10;;;;;;;2.60;1.30;;;26.30;64.20;;;;;;221160;1262;25470;-50
2022/08/21 03:59:12;;;;;;;2.20;1.50;;;26.20;63.60;;;;;;221413;1262;22608;-47
2022/08/21 04:04:15;;;;;;;2.00;1.50;;;26.20;63.60;;;;;;221536;1262;23997;-50
2022/08/21 04:09:18;;;;;;;6.90;1.90;;;26.20;63.70;;;;;;221386;1262;22701;-50
2022/08/21 04:14:20;;;;;;;2.20;1.50;;;26.20;63.60;;;;;;221735;1262;22556;-48
2022/08/21 04:19:23;;;;;;;2.20;1.50;;;26.10;63.60;;;;;;221442;1262;22815;-47
2022/08/21 04:24:26;;;;;;;2.60;1.60;;;26.10;63.90;;;;;;221446;1262;22713;-51
2022/08/21 04:29:31;;;;;;;2.30;1.40;;;26.10;63.60;;;;;;221363;1261;24485;-54
2022/08/21 04:34:36;;;;;;;2.60;1.60;;;26.00;63.70;;;;;;221634;1262;25320;-48
2022/08/21 04:39:38;;;;;;;2.40;1.50;;;26.00;63.40;;;;;;221500;1263;24240;-49
2022/08/21 04:44:41;;;;;;;5.70;1.70;;;26.00;64.20;;;;;;221404;1261;24427;-47
2022/08/21 04:49:44;;;;;;;4.40;1.50;;;25.90;63.90;;;;;;221429;1261;22544;-50
2022/08/21 04:54:49;;;;;;;3.90;1.50;;;25.90;64.00;;;;;;220446;1262;1498791;-47
2022/08/21 04:59:56;;;;;;;2.20;1.30;;;25.90;64.10;;;;;;221263;1262;22685;-50
2022/08/21 05:04:59;;;;;;;2.20;1.40;;;25.90;64.20;;;;;;221396;1262;22862;-49
2022/08/21 05:10:03;;;;;;;1.80;1.40;;;25.80;64.30;;;;;;221407;1262;24051;-52
2022/08/21 05:15:06;;;;;;;2.40;1.40;;;25.80;64.70;;;;;;221640;1262;24731;-49
2022/08/21 05:20:14;;;;;;;1.90;1.30;;;25.70;64.40;;;;;;221529;1261;22593;-48
2022/08/21 05:25:16;;;;;;;1.80;1.40;;;25.70;64.60;;;;;;221528;1261;24188;-46
2022/08/21 05:30:23;;;;;;;2.00;1.10;;;25.70;64.60;;;;;;221592;1262;25497;-52
2022/08/21 05:35:28;;;;;;;2.00;1.50;;;25.60;64.60;;;;;;220870;1265;24205;-52
2022/08/21 05:40:30;;;;;;;1.80;1.30;;;25.50;64.60;;;;;;221560;1261;22524;-53
2022/08/21 05:45:33;;;;;;;2.80;1.50;;;25.50;64.40;;;;;;221737;1261;22623;-48
2022/08/21 05:50:46;;;;;;;2.20;1.40;;;25.50;64.50;;;;;;221558;1261;24191;-50
2022/08/21 05:55:49;;;;;;;2.20;1.50;;;25.50;64.40;;;;;;221725;1262;25445;-48
2022/08/21 06:00:52;;;;;;;2.20;1.40;;;25.50;64.70;;;;;;221541;1261;25397;-51
2022/08/21 06:05:55;;;;;;;1.90;1.50;;;25.50;64.50;;;;;;221284;1262;23048;-47
2022/08/21 06:10:59;;;;;;;2.50;1.60;;;25.40;64.60;;;;;;221531;1262;22542;-50
2022/08/21 06:16:08;;;;;;;3.10;1.50;;;25.40;64.50;;;;;;221412;1263;25371;-51
2022/08/21 06:21:11;;;;;;;1.80;1.40;;;25.40;64.90;;;;;;221307;1262;22541;-49
2022/08/21 06:26:14;;;;;;;3.60;1.50;;;25.40;64.60;;;;;;221367;1262;22598;-47
2022/08/21 06:31:22;;;;;;;2.80;1.60;;;25.40;65.40;;;;;;221474;1262;22567;-50
2022/08/21 06:36:24;;;;;;;2.10;1.40;;;25.30;64.70;;;;;;221552;1261;22554;-52
2022/08/21 06:41:27;;;;;;;3.20;1.30;;;25.40;64.60;;;;;;221357;1262;22558;-50
2022/08/21 06:46:30;;;;;;;2.90;1.50;;;25.40;64.60;;;;;;221682;1263;24350;-48
2022/08/21 06:51:34;;;;;;;2.10;1.40;;;25.40;64.70;;;;;;221669;1262;24236;-52
2022/08/21 06:56:40;;;;;;;3.40;1.60;;;25.40;64.80;;;;;;221364;1262;22532;-48
2022/08/21 07:01:43;;;;;;;4.00;1.90;;;25.30;64.80;;;;;;221399;1262;22962;-52
2022/08/21 07:06:47;;;;;;;2.20;1.50;;;25.30;64.30;;;;;;221596;1261;22572;-51
2022/08/21 07:11:54;;;;;;;3.00;1.80;;;25.20;63.90;;;;;;221581;1262;25684;-48
2022/08/21 07:16:57;;;;;;;3.40;2.10;;;25.20;63.50;;;;;;221582;1262;25248;-49
2022/08/21 07:22:02;;;;;;;3.90;2.00;;;25.20;63.30;;;;;;221481;1261;22715;-50
2022/08/21 07:27:04;;;;;;;3.90;2.10;;;25.20;63.20;;;;;;221466;1262;22572;-49
2022/08/21 07:32:16;;;;;;;3.40;2.00;;;25.20;63.00;;;;;;221016;1261;24296;-50
2022/08/21 07:37:23;;;;;;;4.70;2.50;;;25.10;62.20;;;;;;221765;1262;23949;-49
2022/08/21 07:42:25;;;;;;;4.70;2.40;;;25.00;62.30;;;;;;221251;1261;25387;-47
2022/08/21 07:47:29;;;;;;;4.70;2.10;;;25.00;61.50;;;;;;221558;1262;22547;-53
2022/08/21 07:52:53;;;;;;;7.00;2.10;;;24.90;61.40;;;;;;221325;1261;25308;-50
2022/08/21 07:57:55;;;;;;;4.80;2.20;;;24.90;61.30;;;;;;221258;1262;22553;-46
2022/08/21 08:03:00;;;;;;;3.30;2.10;;;24.90;61.20;;;;;;221587;1261;25345;-48
2022/08/21 08:08:04;;;;;;;6.30;2.40;;;24.90;61.50;;;;;;221460;1262;26695;-53
2022/08/21 08:13:10;;;;;;;5.00;1.90;;;24.80;60.50;;;;;;221293;1262;22800;-49
2022/08/21 08:18:19;;;;;;;4.80;2.50;;;24.80;61.00;;;;;;221284;1262;25244;-51
2022/08/21 08:23:30;;;;;;;4.60;2.20;;;24.70;61.00;;;;;;221627;1262;25317;-49
2022/08/21 08:28:35;;;;;;;4.80;2.40;;;24.70;61.10;;;;;;221634;1262;22539;-50
2022/08/21 08:33:38;;;;;;;4.20;2.30;;;24.70;61.00;;;;;;221552;1262;22544;-57
2022/08/21 08:38:40;;;;;;;3.70;1.90;;;24.60;61.00;;;;;;221485;1262;24295;-51
2022/08/21 08:43:54;;;;;;;3.00;1.70;;;24.60;60.90;;;;;;221326;1262;24333;-51
2022/08/21 08:49:20;;;;;;;3.70;2.00;;;24.60;61.00;;;;;;221453;1261;22538;-49
2022/08/21 08:54:35;;;;;;;4.20;2.00;;;24.60;61.20;;;;;;221156;1262;24309;-48
2022/08/21 08:59:43;;;;;;;2.70;1.80;;;24.70;61.30;;;;;;221683;1261;24293;-53
2022/08/21 09:04:48;;;;;;;3.20;1.70;;;24.70;61.30;;;;;;221323;1262;22534;-48
2022/08/21 09:10:20;;;;;;;3.10;1.80;;;24.70;61.30;;;;;;221550;1261;24201;-48
2022/08/21 09:15:41;;;;;;;3.20;1.60;;;24.70;61.30;;;;;;221246;1262;24364;-53
2022/08/21 09:21:12;;;;;;;3.10;1.60;;;24.70;61.50;;;;;;221206;1262;24331;-50
2022/08/21 09:26:24;;;;;;;4.00;1.70;;;24.80;61.40;;;;;;221293;1265;22564;-52
2022/08/21 09:31:37;;;;;;;2.80;1.50;;;24.80;61.30;;;;;;221128;1262;22545;-49
2022/08/21 09:36:46;;;;;;;2.40;1.60;;;24.80;61.40;;;;;;221393;1262;22544;-49
2022/08/21 09:42:06;;;;;;;2.70;1.40;;;24.80;61.60;;;;;;221600;1262;24292;-51
2022/08/21 09:47:14;;;;;;;2.80;1.70;;;24.80;62.20;;;;;;221493;1262;25296;-52
2022/08/21 09:52:24;;;;;;;3.40;1.60;;;24.80;61.50;;;;;;221147;1265;24208;-49
2022/08/21 09:57:40;;;;;;;4.50;1.60;;;24.70;61.10;;;;;;221662;1262;22706;-51
2022/08/21 10:02:51;;;;;;;3.50;1.40;;;24.70;61.20;;;;;;221366;1262;22558;-51
2022/08/21 10:07:55;;;;;;;2.70;1.50;;;24.70;61.00;;;;;;221851;1262;25250;-51
2022/08/21 10:13:21;;;;;;;3.10;1.80;;;24.70;60.90;;;;;;221290;1262;24300;-50
2022/08/21 10:18:32;;;;;;;2.80;1.60;;;24.70;60.70;;;;;;221510;1261;22652;-51
2022/08/21 10:23:43;;;;;;;4.20;2.00;;;24.70;60.50;;;;;;221270;1262;22535;-49
2022/08/21 10:29:30;;;;;;;3.00;1.60;;;24.70;60.40;;;;;;221372;1261;24296;-48
2022/08/21 10:35:14;;;;;;;3.80;1.80;;;24.70;60.30;;;;;;221466;1261;24236;-51
2022/08/21 10:40:23;;;;;;;3.90;1.80;;;24.70;60.10;;;;;;221371;1262;24123;-51
2022/08/21 10:46:02;;;;;;;3.50;2.10;;;24.70;60.30;;;;;;221462;1262;22539;-50
2022/08/21 10:51:42;;;;;;;3.70;1.80;;;24.70;60.00;;;;;;221426;1262;24208;-50
2022/08/21 10:56:53;;;;;;;3.30;1.90;;;24.70;59.80;;;;;;221262;1261;23963;-51
2022/08/21 11:02:29;;;;;;;3.70;1.80;;;24.60;60.00;;;;;;221602;1262;24506;-50
2022/08/21 11:08:01;;;;;;;4.80;1.90;;;24.60;59.60;;;;;;221354;1262;22539;-48
2022/08/21 11:13:26;;;;;;;3.80;2.00;;;24.70;59.80;;;;;;221415;1262;26464;-50
2022/08/21 11:19:05;;;;;;;4.30;1.90;;;24.70;59.30;;;;;;221528;1262;22580;-47
2022/08/21 11:24:31;;;;;;;4.00;2.10;;;24.70;59.90;;;;;;221523;1265;22535;-54
2022/08/21 11:29:39;;;;;;;4.50;1.70;;;24.60;60.00;;;;;;221588;1262;22760;-51
2022/08/21 11:35:08;;;;;;;5.60;2.10;;;24.60;60.00;;;;;;221509;1264;23948;-53
2022/08/21 11:40:25;;;;;;;5.10;1.80;;;24.60;60.40;;;;;;220724;1265;22544;-50
2022/08/21 11:45:27;;;;;;;5.00;2.00;;;24.70;60.20;;;;;;221357;1262;22691;-53
2022/08/21 11:50:32;;;;;;;4.70;2.20;;;24.70;60.20;;;;;;221260;1262;24208;-50
2022/08/21 11:55:43;;;;;;;4.50;2.40;;;24.60;60.20;;;;;;221107;1262;24269;-51
2022/08/21 12:00:51;;;;;;;4.10;2.10;;;24.70;60.30;;;;;;221204;1262;24191;-56
2022/08/21 12:05:59;;;;;;;2.80;1.70;;;24.70;60.40;;;;;;221699;1262;25358;-50
2022/08/21 12:11:15;;;;;;;5.10;2.30;;;24.60;60.30;;;;;;221845;1262;24487;-51
2022/08/21 12:16:33;;;;;;;5.10;2.20;;;24.70;60.40;;;;;;221362;1262;22557;-53
2022/08/21 12:21:54;;;;;;;6.20;2.80;;;24.60;60.20;;;;;;221432;1262;22592;-53
2022/08/21 12:27:01;;;;;;;4.80;2.80;;;24.60;60.20;;;;;;221304;1262;22545;-48
2022/08/21 12:32:09;;;;;;;5.70;2.60;;;24.50;60.10;;;;;;221468;1262;24248;-49
2022/08/21 12:37:21;;;;;;;5.50;2.60;;;24.60;60.10;;;;;;221423;1262;22694;-50
2022/08/21 12:42:38;;;;;;;3.80;2.70;;;24.50;60.00;;;;;;221351;1262;24208;-52
2022/08/21 12:47:49;;;;;;;6.40;2.70;;;24.50;60.10;;;;;;221656;1262;22540;-55
2022/08/21 12:53:02;;;;;;;4.00;2.70;;;24.50;60.10;;;;;;221567;1262;27670;-52
2022/08/21 12:58:05;;;;;;;4.90;2.50;;;24.50;60.20;;;;;;221198;1262;22646;-55
2022/08/21 13:03:08;;;;;;;5.40;2.40;;;24.50;60.30;;;;;;221416;1262;24261;-52
2022/08/21 13:08:13;;;;;;;5.90;3.10;;;24.50;60.30;;;;;;221211;1262;22551;-48
2022/08/21 13:13:21;;;;;;;5.90;2.60;;;24.50;60.40;;;;;;221784;1262;24268;-50
2022/08/21 13:18:33;;;;;;;4.70;2.50;;;24.50;60.60;;;;;;221471;1262;25123;-50
2022/08/21 13:23:36;;;;;;;5.30;2.70;;;24.50;60.70;;;;;;221439;1262;22763;-50
2022/08/21 13:28:38;;;;;;;5.60;3.00;;;24.50;61.20;;;;;;221436;1261;24223;-52
2022/08/21 13:33:41;;;;;;;5.00;2.60;;;24.50;61.00;;;;;;221389;1262;22537;-49
2022/08/21 13:38:45;;;;;;;4.30;2.60;;;24.50;61.10;;;;;;221370;1262;24253;-49
2022/08/21 13:44:01;;;;;;;5.10;2.70;;;24.50;61.30;;;;;;221227;1262;24290;-52
2022/08/21 13:49:06;;;;;;;4.90;3.10;;;24.40;61.40;;;;;;221525;1262;24324;-52
2022/08/21 13:54:39;;;;;;;4.20;2.70;;;24.40;61.50;;;;;;221276;1262;22567;-52
2022/08/21 13:59:41;;;;;;;4.40;2.70;;;24.40;61.70;;;;;;221251;1261;24192;-50
2022/08/21 14:04:56;;;;;;;6.20;2.80;;;24.40;61.90;;;;;;221451;1262;23048;-49
2022/08/21 14:10:19;;;;;;;5.00;2.60;;;24.40;62.10;;;;;;221377;1262;26486;-49
2022/08/21 14:15:29;;;;;;;4.30;2.80;;;24.40;62.60;;;;;;221116;1262;25515;-49
2022/08/21 14:20:34;;;;;;;5.80;3.00;;;24.30;62.70;;;;;;221220;1262;24284;-52
2022/08/21 14:25:44;;;;;;;5.00;2.90;;;24.30;62.50;;;;;;221555;1262;23048;-53
2022/08/21 14:30:47;;;;;;;4.50;2.80;;;24.30;62.50;;;;;;221534;1262;24208;-50
2022/08/21 14:35:53;;;;;;;5.00;3.00;;;24.30;62.50;;;;;;221627;1262;22539;-48
2022/08/21 14:41:05;;;;;;;5.60;2.90;;;24.20;62.60;;;;;;221234;1261;25573;-48
2022/08/21 14:46:13;;;;;;;4.90;2.80;;;24.30;62.80;;;;;;221560;1261;22525;-50
2022/08/21 14:51:15;;;;;;;5.70;2.90;;;24.20;62.80;;;;;;221408;1262;22630;-51
2022/08/21 14:56:20;;;;;;;4.20;2.90;;;24.30;62.90;;;;;;221439;1262;24512;-51
2022/08/21 15:01:27;;;;;;;5.90;3.00;;;24.30;63.20;;;;;;221178;1262;24318;-50
2022/08/21 15:06:29;;;;;;;4.90;3.20;;;24.30;63.10;;;;;;221593;1262;22525;-52
2022/08/21 15:11:33;;;;;;;5.10;3.00;;;24.20;63.10;;;;;;221213;1262;25298;-52
2022/08/21 15:16:44;;;;;;;6.00;3.70;;;24.20;62.80;;;;;;220905;1262;25317;-49
2022/08/21 15:21:46;;;;;;;4.80;3.00;;;24.20;63.10;;;;;;221246;1262;24103;-50
2022/08/21 15:26:49;;;;;;;4.60;3.10;;;24.20;63.60;;;;;;221264;1262;24730;-55
2022/08/21 15:32:01;;;;;;;5.80;3.30;;;24.20;63.50;;;;;;221698;1262;24330;-51
2022/08/21 15:37:07;;;;;;;4.70;3.10;;;24.10;63.60;;;;;;221628;1262;25245;-49
2022/08/21 15:42:11;;;;;;;5.40;3.10;;;24.10;63.80;;;;;;221436;1262;24242;-52
2022/08/21 15:47:18;;;;;;;4.90;2.90;;;24.10;63.80;;;;;;221646;1262;22565;-51
2022/08/21 15:52:21;;;;;;;5.90;3.10;;;24.10;63.90;;;;;;221586;1262;25242;-51
2022/08/21 15:57:25;;;;;;;5.80;2.80;;;24.10;63.90;;;;;;221331;1262;22653;-50
2022/08/21 16:02:33;;;;;;;7.90;3.40;;;24.10;64.20;;;;;;221814;1261;24201;-49
2022/08/21 16:07:36;;;;;;;4.60;3.00;;;24.10;64.00;;;;;;221502;1262;22548;-53
2022/08/21 16:12:44;;;;;;;5.60;2.90;;;24.10;63.90;;;;;;221519;1262;23954;-52
2022/08/21 16:17:51;;;;;;;4.40;2.90;;;24.10;64.20;;;;;;221416;1262;22563;-53
2022/08/21 16:22:55;;;;;;;4.20;2.70;;;24.10;64.00;;;;;;221775;1262;24237;-50
2022/08/21 16:28:00;;;;;;;5.10;3.10;;;24.10;64.10;;;;;;221773;1264;22550;-52
2022/08/21 16:33:05;;;;;;;6.50;2.90;;;24.10;64.20;;;;;;221144;1262;25249;-50
2022/08/21 16:38:07;;;;;;;3.60;2.50;;;24.10;64.30;;;;;;221606;1262;25331;-51
2022/08/21 16:43:10;;;;;;;5.60;2.70;;;24.10;64.60;;;;;;221056;1262;22528;-50
2022/08/21 16:48:12;;;;;;;5.50;2.80;;;24.10;64.50;;;;;;221378;1262;22685;-53
2022/08/21 16:53:15;;;;;;;3.20;2.20;;;24.10;64.70;;;;;;220414;1262;1337587;-52
2022/08/21 16:58:29;;;;;;;3.60;2.50;;;24.10;64.90;;;;;;221357;1262;22557;-48
2022/08/21 17:03:44;;;;;;;2.90;2.10;;;24.00;65.00;;;;;;221717;1263;22535;-52
2022/08/21 17:08:47;;;;;;;4.50;2.10;;;24.00;65.20;;;;;;221451;1262;26632;-49
2022/08/21 17:13:56;;;;;;;3.20;2.00;;;24.00;64.90;;;;;;221584;1261;22531;-51
2022/08/21 17:18:59;;;;;;;4.40;2.00;;;24.00;65.50;;;;;;221488;1262;22554;-48
2022/08/21 17:24:02;;;;;;;3.40;2.10;;;23.90;65.70;;;;;;221183;1261;24208;-50
2022/08/21 17:29:08;;;;;;;3.40;1.80;;;23.90;66.10;;;;;;221711;1262;24318;-49
2022/08/21 17:34:12;;;;;;;2.80;1.60;;;23.90;66.10;;;;;;221382;1262;22548;-54
2022/08/21 17:39:15;;;;;;;3.30;1.70;;;23.90;66.10;;;;;;221460;1262;23944;-50
2022/08/21 17:44:31;;;;;;;2.90;1.60;;;23.80;66.20;;;;;;221681;1262;22710;-52
2022/08/21 17:49:35;;;;;;;3.20;1.50;;;23.80;65.80;;;;;;221172;1265;22540;-48
2022/08/21 17:54:39;;;;;;;2.50;1.60;;;23.80;65.30;;;;;;221460;1263;22715;-51
2022/08/21 17:59:42;;;;;;;4.90;1.90;;;23.90;65.10;;;;;;221284;1265;22543;-50
2022/08/21 18:04:44;;;;;;;6.20;2.00;;;23.80;64.90;;;;;;221088;1265;22558;-51
2022/08/21 18:09:47;;;;;;;4.70;1.50;;;23.80;64.60;;;;;;221127;1262;22743;-51
2022/08/21 18:14:50;;;;;;;3.40;1.60;;;23.80;64.60;;;;;;221248;1262;26474;-52
2022/08/21 18:19:53;;;;;;;4.20;1.70;;;23.80;64.10;;;;;;221164;1262;22557;-50
2022/08/21 18:24:56;;;;;;;3.20;2.00;;;23.80;63.80;;;;;;221388;1267;22837;-49
2022/08/21 18:29:59;;;;;;;3.90;2.10;;;23.80;63.60;;;;;;221389;1262;22544;-50
2022/08/21 18:35:06;;;;;;;5.10;2.00;;;23.80;63.40;;;;;;221663;1262;22570;-50
2022/08/21 18:40:14;;;;;;;4.50;1.80;;;23.80;63.30;;;;;;221294;1262;25449;-49
2022/08/21 18:45:19;;;;;;;4.00;1.90;;;23.80;63.30;;;;;;221197;1262;22541;-53
2022/08/21 18:50:25;;;;;;;3.40;1.90;;;23.80;63.20;;;;;;221629;1264;25468;-49
2022/08/21 18:55:28;;;;;;;6.40;1.90;;;23.80;63.40;;;;;;221416;1262;23910;-52
2022/08/21 19:00:40;;;;;;;3.70;1.60;;;23.80;63.30;;;;;;221604;1261;24467;-52
2022/08/21 19:05:46;;;;;;;3.30;1.80;;;23.80;62.90;;;;;;221604;1262;22961;-52
2022/08/21 19:10:53;;;;;;;4.90;1.60;;;23.80;62.90;;;;;;221340;1262;22713;-52
2022/08/21 19:15:58;;;;;;;5.00;2.30;;;23.80;62.90;;;;;;221400;1264;22632;-51
2022/08/21 19:21:06;;;;;;;2.70;1.60;;;23.80;62.90;;;;;;221419;1262;22935;-50
2022/08/21 19:26:09;;;;;;;3.10;1.80;;;23.80;62.90;;;;;;221387;1264;22541;-48
2022/08/21 19:31:18;;;;;;;2.70;1.90;;;23.80;63.00;;;;;;221261;1265;24239;-50
2022/08/21 19:36:33;;;;;;;4.10;2.00;;;23.80;63.00;;;;;;221194;1265;24392;-50
2022/08/21 19:41:44;;;;;;;2.50;1.90;;;23.80;63.10;;;;;;221233;1265;25292;-50
2022/08/21 19:46:56;;;;;;;3.30;1.90;;;23.70;63.10;;;;;;221352;1265;24214;-50
2022/08/21 19:52:00;;;;;;;3.20;1.70;;;23.70;63.20;;;;;;221123;1265;24372;-52
2022/08/21 19:57:05;;;;;;;4.40;2.30;;;23.70;63.20;;;;;;221292;1268;22557;-49
2022/08/21 20:02:13;;;;;;;3.80;2.10;;;23.70;63.30;;;;;;221445;1265;25370;-47
2022/08/21 20:07:17;;;;;;;3.00;1.60;;;23.70;62.80;;;;;;221033;1265;26472;-49
2022/08/21 20:12:29;;;;;;;6.00;1.80;;;23.80;63.70;;;;;;220997;1265;22553;-55
2022/08/21 20:17:31;;;;;;;2.70;1.70;;;23.70;63.30;;;;;;221124;1265;24374;-50
2022/08/21 20:22:35;;;;;;;5.30;2.30;;;23.80;63.30;;;;;;221106;1265;23927;-50
2022/08/21 20:27:39;;;;;;;3.60;1.90;;;23.80;63.60;;;;;;221174;1265;26685;-50
2022/08/21 20:32:44;;;;;;;3.30;1.90;;;23.80;63.50;;;;;;221447;1265;26970;-51
2022/08/21 20:37:48;;;;;;;2.90;1.90;;;23.80;63.20;;;;;;221339;1265;22621;-52
2022/08/21 20:43:03;;;;;;;4.00;2.30;;;23.80;63.20;;;;;;221329;1265;24281;-50
2022/08/21 20:48:11;;;;;;;3.40;2.00;;;23.80;63.90;;;;;;221299;1265;25414;-48
2022/08/21 20:53:52;;;;;;;3.70;2.00;;;23.80;63.40;;;;;;221417;1265;24521;-51
2022/08/21 20:59:13;;;;;;;8.10;2.20;;;23.80;63.40;;;;;;220721;1265;23906;-51
2022/08/21 21:04:26;;;;;;;3.40;2.20;;;23.80;63.70;;;;;;220961;1265;24316;-49
2022/08/21 21:09:40;;;;;;;4.10;2.00;;;23.80;63.40;;;;;;221198;1265;24272;-49
2022/08/21 21:14:47;;;;;;;3.20;1.80;;;23.80;63.40;;;;;;221157;1265;23052;-49
2022/08/21 21:20:02;;;;;;;3.90;2.20;;;23.80;63.50;;;;;;221333;1265;24275;-51
2022/08/21 21:25:26;;;;;;;2.90;1.90;;;23.80;63.60;;;;;;221207;1265;22565;-50
2022/08/21 21:30:45;;;;;;;3.00;1.70;;;23.80;63.70;;;;;;221096;1265;25349;-50
2022/08/21 21:36:11;;;;;;;3.90;2.00;;;23.80;64.00;;;;;;221148;1265;25401;-49
2022/08/21 21:41:37;;;;;;;4.00;2.20;;;23.80;64.10;;;;;;221124;1265;22620;-48
2022/08/21 21:47:00;;;;;;;3.90;2.30;;;23.80;63.80;;;;;;221097;1265;25350;-52
2022/08/21 21:52:20;;;;;;;5.80;2.10;;;23.80;64.20;;;;;;221595;1262;25345;-51
2022/08/21 21:57:35;;;;;;;;;;;23.80;63.40;;;;;;221701;1265;22878;-47
2022/08/21 22:03:02;;;;;;;4.60;2.20;;;23.80;64.20;;;;;;221415;1265;23411;-50
2022/08/21 22:08:11;;;;;;;4.40;1.90;;;23.80;64.00;;;;;;221238;1265;24283;-52
2022/08/21 22:13:27;;;;;;;4.40;2.30;;;23.80;64.80;;;;;;221254;1265;22560;-51
2022/08/21 22:18:35;;;;;;;5.90;2.00;;;23.70;64.20;;;;;;221084;1267;24404;-56
2022/08/21 22:23:51;;;;;;;4.30;2.10;;;23.70;64.20;;;;;;221035;1265;24288;-51
2022/08/21 22:28:54;;;;;;;6.80;2.10;;;23.60;64.10;;;;;;221022;1265;26558;-48
2022/08/21 22:34:08;;;;;;;5.90;2.20;;;23.60;64.10;;;;;;221106;1264;25554;-53
2022/08/21 22:39:31;;;;;;;4.70;2.20;;;23.60;63.80;;;;;;220999;1265;22556;-51
2022/08/21 22:45:06;;;;;;;6.10;2.30;;;23.60;64.00;;;;;;221111;1262;24316;-49
2022/08/21 22:50:21;;;;;;;4.30;2.20;;;23.50;64.10;;;;;;221510;1265;24412;-50
2022/08/21 22:55:40;;;;;;;4.20;2.20;;;23.50;64.40;;;;;;221428;1265;23920;-50
2022/08/21 23:01:22;;;;;;;4.90;2.20;;;23.50;64.40;;;;;;221122;1262;22540;-51
2022/08/21 23:06:42;;;;;;;5.00;2.10;;;23.40;64.00;;;;;;221004;1265;24530;-52
2022/08/21 23:11:46;;;;;;;5.20;2.70;;;23.40;64.00;;;;;;221180;1262;25476;-51
2022/08/21 23:16:56;;;;;;;4.10;2.00;;;23.40;64.30;;;;;;221266;1262;24205;-50
2022/08/21 23:22:21;;;;;;;4.10;2.20;;;23.40;64.00;;;;;;221529;1262;25241;-51
2022/08/21 23:28:05;;;;;;;5.50;2.60;;;23.50;63.90;;;;;;221574;1262;22541;-52
2022/08/21 23:33:35;;;;;;;6.10;2.10;;;23.50;63.70;;;;;;221560;1261;23057;-52
2022/08/21 23:39:22;;;;;;;3.50;2.10;;;23.50;63.60;;;;;;221737;1262;22700;-49
2022/08/21 23:44:59;;;;;;;3.40;2.00;;;23.50;63.60;;;;;;221637;1262;24299;-47
2022/08/21 23:50:28;;;;;;;4.80;2.00;;;23.50;63.60;;;;;;221515;1262;22547;-49
2022/08/21 23:56:21;;;;;;;7.00;2.50;;;23.50;63.60;;;;;;221602;1261;24290;-52
